Aérodrome :
LOGIN :

S'inscrire | Disclaimer

   EN    FR    IT 

 










Légende :    VFR   VFR Marginal   IFR   IFR Intensif   IFR Très Intensif
Visi : 
Plafond : 
>= 8 km
>= 3000ft
5 à 8 km
1000 à 3000 ft
1500m à 5 km
500 à 1000 ft
800 à 1500m
200 à 500 ft
< 800m
< 200 ft
Symboles :   Orages  Brouillard  Fortes neiges  Fortes précipitations  Vent > 20 kt
SIGMETs :   Divers  Orages  Givrage  Turbulence  Onde Orograph.  Cendres Volcan.






- Altitude de l'aérodrome : 83 ft
- Code IATA : LHR


EGLL - London Heathrow

DERNIER METAR :
  • 190720Z AUTO 22009KT 9999 NCD 09/09 Q0999 NOSIG

METARs EXPIRÉS :
  • 190650Z AUTO 22008KT 9999 NCD 09/09 Q0999 NOSIG
  • 190620Z AUTO 21008G18KT 190V260 9999 NCD 10/09 Q0998 NOSIG
  • 190550Z AUTO 20009KT 180V250 9999 NCD 10/09 Q0999 NOSIG
  • 190520Z AUTO 20008KT 170V250 9999 NCD 10/09 Q0998 NOSIG
  • 190450Z AUTO 19007KT 160V220 9999 NCD 10/09 Q0998 NOSIG

TAF TAF EGLL
Valide du 19 à 06h jusqu'au 20 à 12h UTC


190455Z 1906/2012 20010KT 9999 SCT040
PROB30 1906/1908 8000
PROB30
TEMPO 1912/1918 8000 SHRA
BECMG 1921/1924 8000
PROB40 2000/2008 4000 BR
BECMG 2001/2004 29004KT
BECMG 2005/2008 BKN009
PROB30
TEMPO 2006/2008 BKN004
BECMG 2009/2012 9999 NSW SCT020



MET'MAP, la Météo Aéronautique d'un coup d'oeil ! - Copyright ORBIFLY Décembre 2007 - Disclaimer

ORBIFLY MET'MAP TEAM :

Programmation & Développement : Alexandra Zaïnal
Conception & Développement : Baudouin d'Aumeries
Co-Programmation & Développement : Marc-Olivier Méhu
Soutien technique & logistique : Manuel Goepfert

Contact : metmap@orbifly.com




SOURCES & CREDITS :

   NOAA